weather.gov     
National Weather Service

Terminal Aerodrome Forecast
NWS Homepage
This page is being discontinued on March 12, 2014.
The same data is available at this site. Please update your bookmarks.
Thank you, and we apologize for the inconvenience.
Please send an email to SR-SRH.Webmaster@noaa.gov with any concerns.


Current Version
Previous Version:    01  02  03  04  05  06  07  08  09  10  11  12  13  14  15  16  17  18  19  20  21  22  23  24  
[Printable]
435
FTPQ31 PGUM 292200 AAF
TAFPQ
TAF AMD
PGWT 292239Z 2923/3018 07022G35KT 6SM -SHRA SCT015 BKN050 BKN100
      TEMPO 2923/3002 -SHRA BKN015 BKN040 OVC090
     FM300600 12022G35KT 5SM SHRA SCT012 BKN020 OVC080
     FM301600 16015G28KT 6SM SHRA SCT012 BKN030 BKN080=


U.S. Dept. of Commerce
NOAA National Weather Service
1325 East West Highway
Silver Spring, MD 20910
E-mail: w-nws.webmaster@noaa.gov
Page last modified: May 16, 2007
NATIONAL WEATHER SERVICE: for Safety, for Work, for Fun - FOR LIFE